sensor_id;sensor_type;location;lat;lon;timestamp;temperature;humidity
14122;DHT22;7139;48.114;11.442;2022-12-18T00:01:24;-2.40;99.90
14122;DHT22;7139;48.114;11.442;2022-12-18T00:03:52;-2.20;99.90
14122;DHT22;7139;48.114;11.442;2022-12-18T00:06:20;-2.10;99.90
14122;DHT22;7139;48.114;11.442;2022-12-18T00:08:47;-2.10;99.90
14122;DHT22;7139;48.114;11.442;2022-12-18T00:11:19;-2.20;99.90
14122;DHT22;7139;48.114;11.442;2022-12-18T00:13:47;-2.20;99.90
14122;DHT22;7139;48.114;11.442;2022-12-18T00:16:15;-2.20;99.90
14122;DHT22;7139;48.114;11.442;2022-12-18T00:18:43;-2.20;99.90
14122;DHT22;7139;48.114;11.442;2022-12-18T00:21:11;-2.20;99.90
14122;DHT22;7139;48.114;11.442;2022-12-18T00:23:40;-2.20;99.90
14122;DHT22;7139;48.114;11.442;2022-12-18T00:26:10;-2.30;99.90
14122;DHT22;7139;48.114;11.442;2022-12-18T00:28:39;-2.20;99.90
14122;DHT22;7139;48.114;11.442;2022-12-18T00:31:08;-2.20;99.90
14122;DHT22;7139;48.114;11.442;2022-12-18T00:33:35;-2.30;99.90
14122;DHT22;7139;48.114;11.442;2022-12-18T00:36:03;-2.30;99.90
14122;DHT22;7139;48.114;11.442;2022-12-18T00:38:30;-2.20;99.90
14122;DHT22;7139;48.114;11.442;2022-12-18T00:40:58;-2.20;99.90
14122;DHT22;7139;48.114;11.442;2022-12-18T00:43:25;-2.20;99.90
14122;DHT22;7139;48.114;11.442;2022-12-18T00:45:52;-2.20;99.90
14122;DHT22;7139;48.114;11.442;2022-12-18T00:48:19;-2.30;99.90
14122;DHT22;7139;48.114;11.442;2022-12-18T00:50:47;-2.30;99.90
14122;DHT22;7139;48.114;11.442;2022-12-18T00:53:14;-2.20;99.90
14122;DHT22;7139;48.114;11.442;2022-12-18T00:55:41;-2.20;99.90
14122;DHT22;7139;48.114;11.442;2022-12-18T00:58:08;-2.20;99.90
14122;DHT22;7139;48.114;11.442;2022-12-18T01:00:35;-2.20;99.90
14122;DHT22;7139;48.114;11.442;2022-12-18T01:03:05;-2.20;99.90
14122;DHT22;7139;48.114;11.442;2022-12-18T01:05:32;-2.20;99.90
14122;DHT22;7139;48.114;11.442;2022-12-18T01:07:59;-2.20;99.90
14122;DHT22;7139;48.114;11.442;2022-12-18T01:10:26;-2.20;99.90
14122;DHT22;7139;48.114;11.442;2022-12-18T01:12:53;-2.20;99.90
14122;DHT22;7139;48.114;11.442;2022-12-18T01:15:20;-2.20;99.90
14122;DHT22;7139;48.114;11.442;2022-12-18T01:17:47;-2.20;99.90
14122;DHT22;7139;48.114;11.442;2022-12-18T01:20:15;-2.20;99.90
14122;DHT22;7139;48.114;11.442;2022-12-18T01:22:42;-2.20;99.90
14122;DHT22;7139;48.114;11.442;2022-12-18T01:25:09;-2.20;99.90
14122;DHT22;7139;48.114;11.442;2022-12-18T01:27:36;-2.20;99.90
14122;DHT22;7139;48.114;11.442;2022-12-18T01:30:04;-2.20;99.90
14122;DHT22;7139;48.114;11.442;2022-12-18T01:32:31;-2.20;99.90
14122;DHT22;7139;48.114;11.442;2022-12-18T01:34:58;-2.20;99.90
14122;DHT22;7139;48.114;11.442;2022-12-18T01:37:26;-2.20;99.90
14122;DHT22;7139;48.114;11.442;2022-12-18T01:39:53;-2.20;99.90
14122;DHT22;7139;48.114;11.442;2022-12-18T01:42:21;-2.20;99.90
14122;DHT22;7139;48.114;11.442;2022-12-18T01:45:00;-2.20;99.90
14122;DHT22;7139;48.114;11.442;2022-12-18T01:47:33;-2.20;99.90
14122;DHT22;7139;48.114;11.442;2022-12-18T01:50:04;-2.20;99.90
14122;DHT22;7139;48.114;11.442;2022-12-18T01:52:34;-2.20;99.90
14122;DHT22;7139;48.114;11.442;2022-12-18T01:55:04;-2.20;99.90
14122;DHT22;7139;48.114;11.442;2022-12-18T01:57:31;-2.20;99.90
14122;DHT22;7139;48.114;11.442;2022-12-18T02:00:02;-2.20;99.90
14122;DHT22;7139;48.114;11.442;2022-12-18T02:02:30;-2.30;99.90
14122;DHT22;7139;48.114;11.442;2022-12-18T02:04:57;-2.30;99.90
14122;DHT22;7139;48.114;11.442;2022-12-18T02:07:32;-2.30;99.90
14122;DHT22;7139;48.114;11.442;2022-12-18T02:10:04;-2.30;99.90
14122;DHT22;7139;48.114;11.442;2022-12-18T02:12:40;-2.20;99.90
14122;DHT22;7139;48.114;11.442;2022-12-18T02:15:12;-2.20;99.90
14122;DHT22;7139;48.114;11.442;2022-12-18T02:17:43;-2.20;99.90
14122;DHT22;7139;48.114;11.442;2022-12-18T02:20:17;-2.30;99.90
14122;DHT22;7139;48.114;11.442;2022-12-18T02:23:01;-2.30;99.90
14122;DHT22;7139;48.114;11.442;2022-12-18T02:25:44;-2.40;99.90
14122;DHT22;7139;48.114;11.442;2022-12-18T02:28:15;-2.40;99.90
14122;DHT22;7139;48.114;11.442;2022-12-18T02:30:47;-2.40;99.90
14122;DHT22;7139;48.114;11.442;2022-12-18T02:33:15;-2.40;99.90
14122;DHT22;7139;48.114;11.442;2022-12-18T02:35:44;-2.40;99.90
14122;DHT22;7139;48.114;11.442;2022-12-18T02:38:12;-2.40;99.90
14122;DHT22;7139;48.114;11.442;2022-12-18T02:40:40;-2.40;99.90
14122;DHT22;7139;48.114;11.442;2022-12-18T02:43:09;-2.40;99.90
14122;DHT22;7139;48.114;11.442;2022-12-18T02:45:46;-2.40;99.90
14122;DHT22;7139;48.114;11.442;2022-12-18T02:48:13;-2.40;99.90
14122;DHT22;7139;48.114;11.442;2022-12-18T02:50:45;-2.40;99.90
14122;DHT22;7139;48.114;11.442;2022-12-18T02:53:20;-2.40;99.90
14122;DHT22;7139;48.114;11.442;2022-12-18T02:56:03;-2.50;99.90
14122;DHT22;7139;48.114;11.442;2022-12-18T02:58:39;-2.50;99.90
14122;DHT22;7139;48.114;11.442;2022-12-18T03:01:13;-2.50;99.90
14122;DHT22;7139;48.114;11.442;2022-12-18T03:03:46;-2.50;99.90
14122;DHT22;7139;48.114;11.442;2022-12-18T03:06:18;-2.50;99.90
14122;DHT22;7139;48.114;11.442;2022-12-18T03:08:50;-2.50;99.90
14122;DHT22;7139;48.114;11.442;2022-12-18T03:11:19;-2.60;99.90
14122;DHT22;7139;48.114;11.442;2022-12-18T03:14:07;-2.60;99.90
14122;DHT22;7139;48.114;11.442;2022-12-18T03:16:36;-2.60;99.90
14122;DHT22;7139;48.114;11.442;2022-12-18T03:19:06;-2.60;99.90
14122;DHT22;7139;48.114;11.442;2022-12-18T03:21:41;-2.60;99.90
14122;DHT22;7139;48.114;11.442;2022-12-18T03:24:10;-2.50;99.90
14122;DHT22;7139;48.114;11.442;2022-12-18T03:26:40;-2.50;99.90
14122;DHT22;7139;48.114;11.442;2022-12-18T03:29:09;-2.50;99.90
14122;DHT22;7139;48.114;11.442;2022-12-18T03:31:42;-2.50;99.90
14122;DHT22;7139;48.114;11.442;2022-12-18T03:34:15;-2.50;99.90
14122;DHT22;7139;48.114;11.442;2022-12-18T03:36:43;-2.50;99.90
14122;DHT22;7139;48.114;11.442;2022-12-18T03:39:10;-2.60;99.90
14122;DHT22;7139;48.114;11.442;2022-12-18T03:41:43;-2.60;99.90
14122;DHT22;7139;48.114;11.442;2022-12-18T03:44:13;-2.60;99.90
14122;DHT22;7139;48.114;11.442;2022-12-18T03:46:47;-2.60;99.90
14122;DHT22;7139;48.114;11.442;2022-12-18T03:49:19;-2.60;99.90
14122;DHT22;7139;48.114;11.442;2022-12-18T03:51:52;-2.60;99.90
14122;DHT22;7139;48.114;11.442;2022-12-18T03:54:21;-2.60;99.90
14122;DHT22;7139;48.114;11.442;2022-12-18T03:56:53;-2.50;99.90
14122;DHT22;7139;48.114;11.442;2022-12-18T03:59:22;-2.50;99.90
14122;DHT22;7139;48.114;11.442;2022-12-18T04:01:52;-2.50;99.90
14122;DHT22;7139;48.114;11.442;2022-12-18T04:04:21;-2.50;99.90
14122;DHT22;7139;48.114;11.442;2022-12-18T04:06:50;-2.50;99.90
14122;DHT22;7139;48.114;11.442;2022-12-18T04:09:18;-2.50;99.90
14122;DHT22;7139;48.114;11.442;2022-12-18T04:11:46;-2.50;99.90
14122;DHT22;7139;48.114;11.442;2022-12-18T04:14:13;-2.50;99.90
14122;DHT22;7139;48.114;11.442;2022-12-18T04:16:40;-2.50;99.90
14122;DHT22;7139;48.114;11.442;2022-12-18T04:19:08;-2.40;99.90
14122;DHT22;7139;48.114;11.442;2022-12-18T04:21:35;-2.40;99.90
14122;DHT22;7139;48.114;11.442;2022-12-18T04:24:02;-2.40;99.90
14122;DHT22;7139;48.114;11.442;2022-12-18T04:26:28;-2.40;99.90
14122;DHT22;7139;48.114;11.442;2022-12-18T04:28:55;-2.40;99.90
14122;DHT22;7139;48.114;11.442;2022-12-18T04:31:22;-2.40;99.90
14122;DHT22;7139;48.114;11.442;2022-12-18T04:33:49;-2.50;99.90
14122;DHT22;7139;48.114;11.442;2022-12-18T04:36:17;-2.50;99.90
14122;DHT22;7139;48.114;11.442;2022-12-18T04:38:43;-2.50;99.90
14122;DHT22;7139;48.114;11.442;2022-12-18T04:41:13;-2.50;99.90
14122;DHT22;7139;48.114;11.442;2022-12-18T04:43:40;-2.50;99.90
14122;DHT22;7139;48.114;11.442;2022-12-18T04:46:08;-2.50;99.90
14122;DHT22;7139;48.114;11.442;2022-12-18T04:48:35;-2.60;99.90
14122;DHT22;7139;48.114;11.442;2022-12-18T04:51:02;-2.60;99.90
14122;DHT22;7139;48.114;11.442;2022-12-18T04:53:31;-2.50;99.90
14122;DHT22;7139;48.114;11.442;2022-12-18T04:56:06;-2.50;99.90
14122;DHT22;7139;48.114;11.442;2022-12-18T04:58:34;-2.40;99.90
14122;DHT22;7139;48.114;11.442;2022-12-18T05:01:00;-2.40;99.90
14122;DHT22;7139;48.114;11.442;2022-12-18T05:03:27;-2.50;99.90
14122;DHT22;7139;48.114;11.442;2022-12-18T05:05:54;-2.50;99.90
14122;DHT22;7139;48.114;11.442;2022-12-18T05:08:21;-2.50;99.90
14122;DHT22;7139;48.114;11.442;2022-12-18T05:10:49;-2.50;99.90
14122;DHT22;7139;48.114;11.442;2022-12-18T05:13:15;-2.50;99.90
14122;DHT22;7139;48.114;11.442;2022-12-18T05:15:42;-2.50;99.90
14122;DHT22;7139;48.114;11.442;2022-12-18T05:18:09;-2.50;99.90
14122;DHT22;7139;48.114;11.442;2022-12-18T05:20:36;-2.50;99.90
14122;DHT22;7139;48.114;11.442;2022-12-18T05:23:02;-2.50;99.90
14122;DHT22;7139;48.114;11.442;2022-12-18T05:25:29;-2.50;99.90
14122;DHT22;7139;48.114;11.442;2022-12-18T05:27:57;-2.50;99.90
14122;DHT22;7139;48.114;11.442;2022-12-18T05:30:24;-2.50;99.90
14122;DHT22;7139;48.114;11.442;2022-12-18T05:32:50;-2.50;99.90
14122;DHT22;7139;48.114;11.442;2022-12-18T05:35:17;-2.40;99.90
14122;DHT22;7139;48.114;11.442;2022-12-18T05:37:44;-2.50;99.90
14122;DHT22;7139;48.114;11.442;2022-12-18T05:40:12;-2.50;99.90
14122;DHT22;7139;48.114;11.442;2022-12-18T05:42:39;-2.50;99.90
14122;DHT22;7139;48.114;11.442;2022-12-18T05:45:08;-2.50;99.90
14122;DHT22;7139;48.114;11.442;2022-12-18T05:47:35;-2.50;99.90
14122;DHT22;7139;48.114;11.442;2022-12-18T05:50:02;-2.50;99.90
14122;DHT22;7139;48.114;11.442;2022-12-18T05:52:30;-2.50;99.90
14122;DHT22;7139;48.114;11.442;2022-12-18T05:54:57;-2.50;99.90
14122;DHT22;7139;48.114;11.442;2022-12-18T05:57:24;-2.50;99.90
14122;DHT22;7139;48.114;11.442;2022-12-18T05:59:51;-2.50;99.90
14122;DHT22;7139;48.114;11.442;2022-12-18T06:02:19;-2.50;99.90
14122;DHT22;7139;48.114;11.442;2022-12-18T06:04:46;-2.50;99.90
14122;DHT22;7139;48.114;11.442;2022-12-18T06:07:13;-2.50;99.90
14122;DHT22;7139;48.114;11.442;2022-12-18T06:09:40;-2.50;99.90
14122;DHT22;7139;48.114;11.442;2022-12-18T06:12:07;-2.60;99.90
14122;DHT22;7139;48.114;11.442;2022-12-18T06:14:33;-2.60;99.90
14122;DHT22;7139;48.114;11.442;2022-12-18T06:17:00;-2.60;99.90
14122;DHT22;7139;48.114;11.442;2022-12-18T06:19:28;-2.60;99.90
14122;DHT22;7139;48.114;11.442;2022-12-18T06:21:55;-2.60;99.90
14122;DHT22;7139;48.114;11.442;2022-12-18T06:24:24;-2.70;99.90
14122;DHT22;7139;48.114;11.442;2022-12-18T06:26:51;-2.70;99.90
14122;DHT22;7139;48.114;11.442;2022-12-18T06:29:17;-2.60;99.90
14122;DHT22;7139;48.114;11.442;2022-12-18T06:31:44;-2.60;99.90
14122;DHT22;7139;48.114;11.442;2022-12-18T06:34:11;-2.60;99.90
14122;DHT22;7139;48.114;11.442;2022-12-18T06:36:39;-2.70;99.90
14122;DHT22;7139;48.114;11.442;2022-12-18T06:39:06;-2.70;99.90
14122;DHT22;7139;48.114;11.442;2022-12-18T06:41:32;-2.60;99.90
14122;DHT22;7139;48.114;11.442;2022-12-18T06:43:59;-2.70;99.90
14122;DHT22;7139;48.114;11.442;2022-12-18T06:46:26;-2.60;99.90
14122;DHT22;7139;48.114;11.442;2022-12-18T06:48:53;-1.00;99.90
14122;DHT22;7139;48.114;11.442;2022-12-18T06:51:20;5.70;99.90
14122;DHT22;7139;48.114;11.442;2022-12-18T06:53:49;9.20;92.50
14122;DHT22;7139;48.114;11.442;2022-12-18T06:56:16;9.60;82.80
14122;DHT22;7139;48.114;11.442;2022-12-18T06:58:43;8.60;81.30
14122;DHT22;7139;48.114;11.442;2022-12-18T07:01:11;7.20;83.30
14122;DHT22;7139;48.114;11.442;2022-12-18T07:03:40;5.90;86.20
14122;DHT22;7139;48.114;11.442;2022-12-18T07:06:11;4.50;89.80
14122;DHT22;7139;48.114;11.442;2022-12-18T07:08:38;3.40;91.30
14122;DHT22;7139;48.114;11.442;2022-12-18T07:11:06;2.20;93.00
14122;DHT22;7139;48.114;11.442;2022-12-18T07:13:33;1.40;94.30
14122;DHT22;7139;48.114;11.442;2022-12-18T07:16:05;0.60;95.70
14122;DHT22;7139;48.114;11.442;2022-12-18T07:18:32;0.00;97.10
14122;DHT22;7139;48.114;11.442;2022-12-18T07:21:02;-0.50;98.00
14122;DHT22;7139;48.114;11.442;2022-12-18T07:23:29;-0.90;99.30
14122;DHT22;7139;48.114;11.442;2022-12-18T07:26:00;-1.20;99.90
14122;DHT22;7139;48.114;11.442;2022-12-18T07:28:29;-1.50;99.90
14122;DHT22;7139;48.114;11.442;2022-12-18T07:30:56;-1.60;99.90
14122;DHT22;7139;48.114;11.442;2022-12-18T07:33:22;-1.80;99.90
14122;DHT22;7139;48.114;11.442;2022-12-18T07:35:49;-1.90;99.90
14122;DHT22;7139;48.114;11.442;2022-12-18T07:38:16;-2.00;99.90
14122;DHT22;7139;48.114;11.442;2022-12-18T07:40:43;-2.10;99.90
14122;DHT22;7139;48.114;11.442;2022-12-18T07:43:10;-2.20;99.90
14122;DHT22;7139;48.114;11.442;2022-12-18T07:45:38;-2.20;99.90
14122;DHT22;7139;48.114;11.442;2022-12-18T07:48:05;-2.30;99.90
14122;DHT22;7139;48.114;11.442;2022-12-18T07:50:31;-2.30;99.90
14122;DHT22;7139;48.114;11.442;2022-12-18T07:52:58;-2.40;99.90
14122;DHT22;7139;48.114;11.442;2022-12-18T07:55:28;-2.40;99.90
14122;DHT22;7139;48.114;11.442;2022-12-18T07:57:55;-2.50;99.90
14122;DHT22;7139;48.114;11.442;2022-12-18T08:00:22;-2.50;99.90
14122;DHT22;7139;48.114;11.442;2022-12-18T08:02:50;-2.50;99.90
14122;DHT22;7139;48.114;11.442;2022-12-18T08:05:17;-2.50;99.90
14122;DHT22;7139;48.114;11.442;2022-12-18T08:07:44;-2.50;99.90
14122;DHT22;7139;48.114;11.442;2022-12-18T08:10:11;-2.50;99.90
14122;DHT22;7139;48.114;11.442;2022-12-18T08:12:37;-2.40;99.90
14122;DHT22;7139;48.114;11.442;2022-12-18T08:15:05;-2.40;99.90
14122;DHT22;7139;48.114;11.442;2022-12-18T08:17:32;-2.40;99.90
14122;DHT22;7139;48.114;11.442;2022-12-18T08:20:00;-2.40;99.90
14122;DHT22;7139;48.114;11.442;2022-12-18T08:22:27;-2.40;99.90
14122;DHT22;7139;48.114;11.442;2022-12-18T08:24:54;-2.40;99.90
14122;DHT22;7139;48.114;11.442;2022-12-18T08:27:21;-2.40;99.90
14122;DHT22;7139;48.114;11.442;2022-12-18T08:29:48;-2.40;99.90
14122;DHT22;7139;48.114;11.442;2022-12-18T08:32:15;-2.40;99.90
14122;DHT22;7139;48.114;11.442;2022-12-18T08:34:41;-2.40;99.90
14122;DHT22;7139;48.114;11.442;2022-12-18T08:37:09;-2.40;99.90
14122;DHT22;7139;48.114;11.442;2022-12-18T08:39:36;-2.40;99.90
14122;DHT22;7139;48.114;11.442;2022-12-18T08:42:03;-2.40;99.90
14122;DHT22;7139;48.114;11.442;2022-12-18T08:44:47;-2.30;99.90
14122;DHT22;7139;48.114;11.442;2022-12-18T08:47:14;-2.40;99.90
14122;DHT22;7139;48.114;11.442;2022-12-18T08:49:41;-2.40;99.90
14122;DHT22;7139;48.114;11.442;2022-12-18T08:52:07;-2.30;99.90
14122;DHT22;7139;48.114;11.442;2022-12-18T08:54:35;-2.30;99.90
14122;DHT22;7139;48.114;11.442;2022-12-18T08:57:02;-2.30;99.90
14122;DHT22;7139;48.114;11.442;2022-12-18T08:59:29;-2.30;99.90
14122;DHT22;7139;48.114;11.442;2022-12-18T09:01:56;-2.20;99.90
14122;DHT22;7139;48.114;11.442;2022-12-18T09:04:22;-2.30;99.90
14122;DHT22;7139;48.114;11.442;2022-12-18T09:06:49;-2.30;99.90
14122;DHT22;7139;48.114;11.442;2022-12-18T09:09:16;-2.30;99.90
14122;DHT22;7139;48.114;11.442;2022-12-18T09:11:44;-2.30;99.90
14122;DHT22;7139;48.114;11.442;2022-12-18T09:14:11;-2.30;99.90
14122;DHT22;7139;48.114;11.442;2022-12-18T09:16:38;-2.40;99.90
14122;DHT22;7139;48.114;11.442;2022-12-18T09:19:05;-2.50;99.90
14122;DHT22;7139;48.114;11.442;2022-12-18T09:21:33;-2.40;99.90
14122;DHT22;7139;48.114;11.442;2022-12-18T09:24:00;-2.30;99.90
14122;DHT22;7139;48.114;11.442;2022-12-18T09:26:27;-2.30;99.90
14122;DHT22;7139;48.114;11.442;2022-12-18T09:28:55;-2.30;99.90
14122;DHT22;7139;48.114;11.442;2022-12-18T09:31:23;-2.30;99.90
14122;DHT22;7139;48.114;11.442;2022-12-18T09:33:50;-2.20;99.90
14122;DHT22;7139;48.114;11.442;2022-12-18T09:36:18;-2.20;99.90
14122;DHT22;7139;48.114;11.442;2022-12-18T09:38:45;-2.20;99.90
14122;DHT22;7139;48.114;11.442;2022-12-18T09:41:30;-2.20;99.90
14122;DHT22;7139;48.114;11.442;2022-12-18T09:44:04;-2.20;99.90
14122;DHT22;7139;48.114;11.442;2022-12-18T09:46:38;-2.20;99.90
14122;DHT22;7139;48.114;11.442;2022-12-18T09:49:11;-2.20;99.90
14122;DHT22;7139;48.114;11.442;2022-12-18T09:51:42;-2.20;99.90
14122;DHT22;7139;48.114;11.442;2022-12-18T09:54:14;-2.20;99.90
14122;DHT22;7139;48.114;11.442;2022-12-18T09:56:43;-2.10;99.90
14122;DHT22;7139;48.114;11.442;2022-12-18T09:59:21;-2.10;99.90
14122;DHT22;7139;48.114;11.442;2022-12-18T10:01:49;-2.00;99.90
14122;DHT22;7139;48.114;11.442;2022-12-18T10:04:15;-2.00;99.90
14122;DHT22;7139;48.114;11.442;2022-12-18T10:06:46;-2.00;99.90
14122;DHT22;7139;48.114;11.442;2022-12-18T10:09:24;-1.90;99.90
14122;DHT22;7139;48.114;11.442;2022-12-18T10:11:57;-1.90;99.90
14122;DHT22;7139;48.114;11.442;2022-12-18T10:14:33;-1.90;99.90
14122;DHT22;7139;48.114;11.442;2022-12-18T10:17:06;-1.80;99.90
14122;DHT22;7139;48.114;11.442;2022-12-18T10:19:39;-1.80;99.90
14122;DHT22;7139;48.114;11.442;2022-12-18T10:22:22;-1.80;99.90
14122;DHT22;7139;48.114;11.442;2022-12-18T10:24:59;-1.80;99.90
14122;DHT22;7139;48.114;11.442;2022-12-18T10:27:28;-1.80;99.90
14122;DHT22;7139;48.114;11.442;2022-12-18T10:29:57;-1.80;99.90
14122;DHT22;7139;48.114;11.442;2022-12-18T10:32:26;-1.90;99.90
14122;DHT22;7139;48.114;11.442;2022-12-18T10:34:55;-1.90;99.90
14122;DHT22;7139;48.114;11.442;2022-12-18T10:37:24;-1.90;99.90
14122;DHT22;7139;48.114;11.442;2022-12-18T10:40:07;-1.90;99.90
14122;DHT22;7139;48.114;11.442;2022-12-18T10:42:35;-1.80;99.90
14122;DHT22;7139;48.114;11.442;2022-12-18T10:45:08;-1.80;99.90
14122;DHT22;7139;48.114;11.442;2022-12-18T10:47:35;-1.80;99.90
14122;DHT22;7139;48.114;11.442;2022-12-18T10:50:03;-1.70;99.90
14122;DHT22;7139;48.114;11.442;2022-12-18T10:52:30;-1.70;99.90
14122;DHT22;7139;48.114;11.442;2022-12-18T10:54:59;-1.70;99.90
14122;DHT22;7139;48.114;11.442;2022-12-18T10:57:33;-1.80;99.90
14122;DHT22;7139;48.114;11.442;2022-12-18T11:00:22;-1.80;99.90
14122;DHT22;7139;48.114;11.442;2022-12-18T11:02:50;-1.80;99.90
14122;DHT22;7139;48.114;11.442;2022-12-18T11:05:26;-1.80;99.90
14122;DHT22;7139;48.114;11.442;2022-12-18T11:07:53;-1.80;99.90
14122;DHT22;7139;48.114;11.442;2022-12-18T11:10:22;-1.80;99.90
14122;DHT22;7139;48.114;11.442;2022-12-18T11:12:52;-1.80;99.90
14122;DHT22;7139;48.114;11.442;2022-12-18T11:15:23;-1.80;99.90
14122;DHT22;7139;48.114;11.442;2022-12-18T11:17:51;-1.80;99.90
14122;DHT22;7139;48.114;11.442;2022-12-18T11:20:27;-1.80;99.90
14122;DHT22;7139;48.114;11.442;2022-12-18T11:22:59;-1.80;99.90
14122;DHT22;7139;48.114;11.442;2022-12-18T11:25:26;-1.80;99.90
14122;DHT22;7139;48.114;11.442;2022-12-18T11:27:56;-1.70;99.90
14122;DHT22;7139;48.114;11.442;2022-12-18T11:30:27;-1.70;99.90
14122;DHT22;7139;48.114;11.442;2022-12-18T11:32:58;-1.70;99.90
14122;DHT22;7139;48.114;11.442;2022-12-18T11:35:35;-1.70;99.90
14122;DHT22;7139;48.114;11.442;2022-12-18T11:38:06;-1.70;99.90
14122;DHT22;7139;48.114;11.442;2022-12-18T11:40:42;-1.60;99.90
14122;DHT22;7139;48.114;11.442;2022-12-18T11:43:13;-1.70;99.90
14122;DHT22;7139;48.114;11.442;2022-12-18T11:45:47;-1.70;99.90
14122;DHT22;7139;48.114;11.442;2022-12-18T11:48:18;-1.70;99.90
14122;DHT22;7139;48.114;11.442;2022-12-18T11:50:50;-1.70;99.90
14122;DHT22;7139;48.114;11.442;2022-12-18T11:53:17;-1.70;99.90
14122;DHT22;7139;48.114;11.442;2022-12-18T11:55:56;-1.70;99.90
14122;DHT22;7139;48.114;11.442;2022-12-18T11:58:43;-1.70;99.90
14122;DHT22;7139;48.114;11.442;2022-12-18T12:01:27;-1.80;99.90
14122;DHT22;7139;48.114;11.442;2022-12-18T12:04:17;-1.80;99.90
14122;DHT22;7139;48.114;11.442;2022-12-18T12:06:53;-1.70;99.90
14122;DHT22;7139;48.114;11.442;2022-12-18T12:09:27;-1.80;99.90
14122;DHT22;7139;48.114;11.442;2022-12-18T12:12:09;-1.80;99.90
14122;DHT22;7139;48.114;11.442;2022-12-18T12:14:51;-1.70;99.90
14122;DHT22;7139;48.114;11.442;2022-12-18T12:17:33;-1.70;99.90
14122;DHT22;7139;48.114;11.442;2022-12-18T12:20:07;-1.80;99.90
14122;DHT22;7139;48.114;11.442;2022-12-18T12:22:40;-1.70;99.90
14122;DHT22;7139;48.114;11.442;2022-12-18T12:25:28;-1.70;99.90
14122;DHT22;7139;48.114;11.442;2022-12-18T12:28:07;-1.80;99.90
14122;DHT22;7139;48.114;11.442;2022-12-18T12:30:42;-1.80;99.90
14122;DHT22;7139;48.114;11.442;2022-12-18T12:33:22;-1.80;99.90
14122;DHT22;7139;48.114;11.442;2022-12-18T12:36:01;-1.70;99.90
14122;DHT22;7139;48.114;11.442;2022-12-18T12:38:34;-1.70;99.90
14122;DHT22;7139;48.114;11.442;2022-12-18T12:41:06;-1.70;99.90
14122;DHT22;7139;48.114;11.442;2022-12-18T12:43:56;-1.70;99.90
14122;DHT22;7139;48.114;11.442;2022-12-18T12:46:23;-1.80;99.90
14122;DHT22;7139;48.114;11.442;2022-12-18T12:48:53;-1.80;99.90
14122;DHT22;7139;48.114;11.442;2022-12-18T12:51:24;-1.80;99.90
14122;DHT22;7139;48.114;11.442;2022-12-18T12:53:52;-1.80;99.90
14122;DHT22;7139;48.114;11.442;2022-12-18T12:56:21;-1.80;99.90
14122;DHT22;7139;48.114;11.442;2022-12-18T12:58:57;-1.90;99.90
14122;DHT22;7139;48.114;11.442;2022-12-18T13:01:32;-1.80;99.90
14122;DHT22;7139;48.114;11.442;2022-12-18T13:04:15;-1.90;99.90
14122;DHT22;7139;48.114;11.442;2022-12-18T13:06:50;-1.80;99.90
14122;DHT22;7139;48.114;11.442;2022-12-18T13:09:20;-1.80;99.90
14122;DHT22;7139;48.114;11.442;2022-12-18T13:11:47;-1.80;99.90
14122;DHT22;7139;48.114;11.442;2022-12-18T13:14:33;-1.80;99.90
14122;DHT22;7139;48.114;11.442;2022-12-18T13:17:27;-1.80;99.90
14122;DHT22;7139;48.114;11.442;2022-12-18T13:20:18;-1.80;99.90
14122;DHT22;7139;48.114;11.442;2022-12-18T13:22:46;-1.80;99.90
14122;DHT22;7139;48.114;11.442;2022-12-18T13:25:34;-1.80;99.90
14122;DHT22;7139;48.114;11.442;2022-12-18T13:28:10;-1.80;99.90
14122;DHT22;7139;48.114;11.442;2022-12-18T13:30:43;-1.70;99.90
14122;DHT22;7139;48.114;11.442;2022-12-18T13:36:30;-1.80;99.90
14122;DHT22;7139;48.114;11.442;2022-12-18T13:39:23;-1.80;99.90
14122;DHT22;7139;48.114;11.442;2022-12-18T13:41:53;-1.80;99.90
14122;DHT22;7139;48.114;11.442;2022-12-18T13:44:31;-1.80;99.90
14122;DHT22;7139;48.114;11.442;2022-12-18T13:46:59;-1.90;99.90
14122;DHT22;7139;48.114;11.442;2022-12-18T13:49:31;-1.90;99.90
14122;DHT22;7139;48.114;11.442;2022-12-18T13:52:16;-1.90;99.90
14122;DHT22;7139;48.114;11.442;2022-12-18T13:54:47;-1.90;99.90
14122;DHT22;7139;48.114;11.442;2022-12-18T13:57:26;-2.00;99.90
14122;DHT22;7139;48.114;11.442;2022-12-18T13:59:53;-2.10;99.90
14122;DHT22;7139;48.114;11.442;2022-12-18T14:02:22;-2.10;99.90
14122;DHT22;7139;48.114;11.442;2022-12-18T14:04:49;-2.00;99.90
14122;DHT22;7139;48.114;11.442;2022-12-18T14:07:19;-2.10;99.90
14122;DHT22;7139;48.114;11.442;2022-12-18T14:09:49;-2.10;99.90
14122;DHT22;7139;48.114;11.442;2022-12-18T14:12:19;-2.10;99.90
14122;DHT22;7139;48.114;11.442;2022-12-18T14:15:14;-2.10;99.90
14122;DHT22;7139;48.114;11.442;2022-12-18T14:17:47;-2.10;99.90
14122;DHT22;7139;48.114;11.442;2022-12-18T14:20:14;-2.00;99.90
14122;DHT22;7139;48.114;11.442;2022-12-18T14:22:45;-2.00;99.90
14122;DHT22;7139;48.114;11.442;2022-12-18T14:25:17;-2.10;99.90
14122;DHT22;7139;48.114;11.442;2022-12-18T14:27:46;-2.10;99.90
14122;DHT22;7139;48.114;11.442;2022-12-18T14:30:29;-2.10;99.90
14122;DHT22;7139;48.114;11.442;2022-12-18T14:33:03;-2.20;99.90
14122;DHT22;7139;48.114;11.442;2022-12-18T14:35:31;-2.20;99.90
14122;DHT22;7139;48.114;11.442;2022-12-18T14:38:23;-2.30;99.90
14122;DHT22;7139;48.114;11.442;2022-12-18T14:40:57;-2.30;99.90
14122;DHT22;7139;48.114;11.442;2022-12-18T14:43:26;-2.30;99.90
14122;DHT22;7139;48.114;11.442;2022-12-18T14:45:53;-2.30;99.90
14122;DHT22;7139;48.114;11.442;2022-12-18T14:48:22;-2.30;99.90
14122;DHT22;7139;48.114;11.442;2022-12-18T14:50:57;-2.30;99.90
14122;DHT22;7139;48.114;11.442;2022-12-18T14:53:38;-2.30;99.90
14122;DHT22;7139;48.114;11.442;2022-12-18T14:56:15;-2.40;99.90
14122;DHT22;7139;48.114;11.442;2022-12-18T14:58:50;-2.40;99.90
14122;DHT22;7139;48.114;11.442;2022-12-18T15:01:20;-2.50;99.90
14122;DHT22;7139;48.114;11.442;2022-12-18T15:03:48;-2.50;99.90
14122;DHT22;7139;48.114;11.442;2022-12-18T15:06:16;-2.50;99.90
14122;DHT22;7139;48.114;11.442;2022-12-18T15:08:45;-2.50;99.90
14122;DHT22;7139;48.114;11.442;2022-12-18T15:14:24;-2.50;99.90
14122;DHT22;7139;48.114;11.442;2022-12-18T15:16:57;-2.50;99.90
14122;DHT22;7139;48.114;11.442;2022-12-18T15:19:32;-2.50;99.90
14122;DHT22;7139;48.114;11.442;2022-12-18T15:22:00;-2.50;99.90
14122;DHT22;7139;48.114;11.442;2022-12-18T15:24:30;1.00;99.90
14122;DHT22;7139;48.114;11.442;2022-12-18T15:26:57;5.40;99.90
14122;DHT22;7139;48.114;11.442;2022-12-18T15:29:25;6.60;92.80
14122;DHT22;7139;48.114;11.442;2022-12-18T15:32:00;6.40;90.30
14122;DHT22;7139;48.114;11.442;2022-12-18T15:34:27;5.30;90.40
14122;DHT22;7139;48.114;11.442;2022-12-18T15:36:54;4.20;91.30
14122;DHT22;7139;48.114;11.442;2022-12-18T15:39:21;3.00;92.40
14122;DHT22;7139;48.114;11.442;2022-12-18T15:41:49;2.00;93.60
14122;DHT22;7139;48.114;11.442;2022-12-18T15:44:34;1.10;94.90
14122;DHT22;7139;48.114;11.442;2022-12-18T15:47:01;0.40;96.60
14122;DHT22;7139;48.114;11.442;2022-12-18T15:49:27;-0.20;97.60
14122;DHT22;7139;48.114;11.442;2022-12-18T15:51:57;-0.60;98.50
14122;DHT22;7139;48.114;11.442;2022-12-18T15:54:24;-1.00;99.30
14122;DHT22;7139;48.114;11.442;2022-12-18T15:57:09;-1.30;99.90
14122;DHT22;7139;48.114;11.442;2022-12-18T15:59:53;-1.60;99.90